Time;durP1;ratioP1;P1;durP2;ratioP2;P2;SDS_P1;SDS_P2;PMS_P1;PMS_P2;Temp;Humidity;BMP_temperature;BMP_pressure;BME280_temperature;BME280_humidity;BME280_pressure;Samples;Min_cycle;Max_cycle;Signal;HPM_P1;HPM_P2
2023/04/28 00:00:26;;;;;;;;;;;;;;;;;;7596549;23;19905;-78
2023/04/28 00:03:27;;;;;;;;;;;;;;;;;;7597124;23;19905;-78
2023/04/28 00:06:27;;;;;;;;;;;;;;;;;;7570961;23;20300;-78
2023/04/28 00:09:27;;;;;;;;;;;;;;;;;;7597123;23;19904;-78
2023/04/28 00:12:27;;;;;;;;;;;;;;;;;;7597339;23;19916;-78
2023/04/28 00:15:27;;;;;;;;;;;;;;;;;;7597169;23;19901;-78
2023/04/28 00:18:27;;;;;;;;;;;;;;;;;;7597315;23;19909;-78
2023/04/28 00:21:27;;;;;;;;;;;;;;;;;;7596672;23;19904;-78
2023/04/28 00:24:28;;;;;;;;;;;;;;;;;;7597195;23;19908;-78
2023/04/28 00:27:28;;;;;;;;;;;;;;;;;;7571173;23;19901;-78
2023/04/28 00:30:28;;;;;;;;;;;;;;;;;;7596449;23;20339;-78
2023/04/28 00:33:28;;;;;;;;;;;;;;;;;;7571103;23;19908;-78
2023/04/28 00:36:31;;;;;;;;;;;;;;;;;;7597281;23;19954;-78
2023/04/28 00:39:32;;;;;;;;;;;;;;;;;;7596523;23;19939;-78
2023/04/28 00:42:32;;;;;;;;;;;;;;;;;;7596000;23;19991;-78
2023/04/28 00:45:32;;;;;;;;;;;;;;;;;;7597196;23;19901;-78
2023/04/28 00:48:34;;;;;;;;;;;;;;;;;;7596850;23;20379;-78
2023/04/28 00:51:34;;;;;;;;;;;;;;;;;;7570694;23;19908;-78
2023/04/28 00:54:36;;;;;;;;;;;;;;;;;;7596614;23;19908;-78
2023/04/28 00:57:36;;;;;;;;;;;;;;;;;;7570241;23;19924;-78
2023/04/28 01:00:36;;;;;;;;;;;;;;;;;;7597678;23;19904;-78
2023/04/28 01:03:36;;;;;;;;;;;;;;;;;;7596762;23;19995;-78
2023/04/28 01:06:36;;;;;;;;;;;;;;;;;;7595853;23;19912;-78
2023/04/28 01:09:36;;;;;;;;;;;;;;;;;;7596173;23;19905;-78
2023/04/28 01:12:37;;;;;;;;;;;;;;;;;;7595969;23;19913;-78
2023/04/28 01:15:37;;;;;;;;;;;;;;;;;;7595244;23;20321;-78
2023/04/28 01:18:39;;;;;;;;;;;;;;;;;;7595712;23;19916;-77
2023/04/28 01:21:40;;;;;;;;;;;;;;;;;;7597297;23;19962;-78
2023/04/28 01:24:40;;;;;;;;;;;;;;;;;;7596595;23;19908;-78
2023/04/28 01:27:40;;;;;;;;;;;;;;;;;;7596088;23;19904;-78
2023/04/28 01:30:40;;;;;;;;;;;;;;;;;;7569717;23;19967;-78
2023/04/28 01:33:40;;;;;;;;;;;;;;;;;;7596657;23;19904;-78
2023/04/28 01:36:40;;;;;;;;;;;;;;;;;;7597115;23;19924;-78
2023/04/28 01:39:40;;;;;;;;;;;;;;;;;;7595363;23;19905;-78
2023/04/28 01:42:40;;;;;;;;;;;;;;;;;;7596558;23;19908;-78
2023/04/28 01:45:41;;;;;;;;;;;;;;;;;;7596575;23;20240;-78
2023/04/28 01:48:41;;;;;;;;;;;;;;;;;;7596481;23;20210;-78
2023/04/28 01:51:41;;;;;;;;;;;;;;;;;;7596847;23;19912;-77
2023/04/28 01:54:41;;;;;;;;;;;;;;;;;;7596280;23;19901;-78
2023/04/28 01:57:42;;;;;;;;;;;;;;;;;;7596256;23;19928;-78
2023/04/28 02:00:42;;;;;;;;;;;;;;;;;;7596079;23;19935;-78
2023/04/28 02:03:42;;;;;;;;;;;;;;;;;;7596403;23;19905;-77
2023/04/28 02:06:42;;;;;;;;;;;;;;;;;;7570323;23;19901;-77
2023/04/28 02:09:42;;;;;;;;;;;;;;;;;;7596694;23;19951;-77
2023/04/28 02:12:43;;;;;;;;;;;;;;;;;;7595648;23;19913;-77
2023/04/28 02:15:43;;;;;;;;;;;;;;;;;;7570527;23;19900;-77
2023/04/28 02:18:43;;;;;;;;;;;;;;;;;;7569983;23;19962;-77
2023/04/28 02:21:43;;;;;;;;;;;;;;;;;;7596272;23;19951;-77
2023/04/28 02:24:43;;;;;;;;;;;;;;;;;;7596690;23;19908;-77
2023/04/28 02:27:43;;;;;;;;;;;;;;;;;;7596372;23;19924;-77
2023/04/28 02:30:43;;;;;;;;;;;;;;;;;;7596606;23;20317;-82
2023/04/28 02:33:43;;;;;;;;;;;;;;;;;;7595601;23;19905;-81
2023/04/28 02:36:43;;;;;;;;;;;;;;;;;;7596417;23;19912;-82
2023/04/28 02:39:44;;;;;;;;;;;;;;;;;;7596571;23;19927;-82
2023/04/28 02:42:44;;;;;;;;;;;;;;;;;;7596160;23;19962;-81
2023/04/28 02:45:44;;;;;;;;;;;;;;;;;;7595492;23;20008;-82
2023/04/28 02:48:45;;;;;;;;;;;;;;;;;;7595983;23;19912;-82
2023/04/28 02:51:45;;;;;;;;;;;;;;;;;;7596284;23;19909;-81
2023/04/28 02:54:47;;;;;;;;;;;;;;;;;;7596545;23;19905;-82
2023/04/28 02:57:47;;;;;;;;;;;;;;;;;;7600650;23;19951;-81
2023/04/28 03:00:48;;;;;;;;;;;;;;;;;;7602118;23;19905;-81
2023/04/28 03:03:48;;;;;;;;;;;;;;;;;;7600049;23;19905;-82
2023/04/28 03:06:48;;;;;;;;;;;;;;;;;;7596339;23;19901;-82
2023/04/28 03:09:48;;;;;;;;;;;;;;;;;;7596659;23;19951;-82
2023/04/28 03:12:48;;;;;;;;;;;;;;;;;;7602629;23;19924;-82
2023/04/28 03:15:49;;;;;;;;;;;;;;;;;;7605042;23;20394;-81
2023/04/28 03:18:49;;;;;;;;;;;;;;;;;;7604685;23;19909;-83
2023/04/28 03:21:52;;;;;;;;;;;;;;;;;;7596852;23;19984;-83
2023/04/28 03:24:52;;;;;;;;;;;;;;;;;;7594794;23;19905;-83
2023/04/28 03:27:52;;;;;;;;;;;;;;;;;;7596083;23;19908;-82
2023/04/28 03:30:52;;;;;;;;;;;;;;;;;;7568888;23;19912;-83
2023/04/28 03:33:52;;;;;;;;;;;;;;;;;;7594895;23;19900;-83
2023/04/28 03:36:52;;;;;;;;;;;;;;;;;;7595163;23;19916;-82
2023/04/28 03:39:52;;;;;;;;;;;;;;;;;;7569537;23;19901;-82
2023/04/28 03:42:54;;;;;;;;;;;;;;;;;;7595491;23;20050;-82
2023/04/28 03:45:54;;;;;;;;;;;;;;;;;;7595064;23;19901;-82
2023/04/28 03:48:54;;;;;;;;;;;;;;;;;;7596040;23;20666;-82
2023/04/28 03:51:54;;;;;;;;;;;;;;;;;;7569840;23;19951;-82
2023/04/28 03:54:55;;;;;;;;;;;;;;;;;;7595269;23;20229;-82
2023/04/28 03:57:55;;;;;;;;;;;;;;;;;;7595079;23;19996;-80
2023/04/28 04:00:55;;;;;;;;;;;;;;;;;;7594805;23;19909;-81
2023/04/28 04:03:55;;;;;;;;;;;;;;;;;;7595058;23;19904;-81
2023/04/28 04:06:55;;;;;;;;;;;;;;;;;;7595502;23;19909;-82
2023/04/28 04:09:55;;;;;;;;;;;;;;;;;;7594998;23;19992;-82
2023/04/28 04:12:56;;;;;;;;;;;;;;;;;;7594714;23;19909;-82
2023/04/28 04:15:56;;;;;;;;;;;;;;;;;;7595411;23;20267;-81
2023/04/28 04:18:56;;;;;;;;;;;;;;;;;;7594520;23;19917;-82
2023/04/28 04:21:56;;;;;;;;;;;;;;;;;;7594744;23;19909;-82
2023/04/28 04:24:56;;;;;;;;;;;;;;;;;;7594796;23;19916;-82
2023/04/28 04:27:56;;;;;;;;;;;;;;;;;;7595445;23;19932;-82
2023/04/28 04:30:56;;;;;;;;;;;;;;;;;;7594555;23;19916;-81
2023/04/28 04:33:56;;;;;;;;;;;;;;;;;;7595349;23;19909;-82
2023/04/28 04:36:57;;;;;;;;;;;;;;;;;;7593941;23;20244;-83
2023/04/28 04:39:57;;;;;;;;;;;;;;;;;;7595240;23;19947;-77
2023/04/28 04:42:57;;;;;;;;;;;;;;;;;;7596317;23;19904;-77
2023/04/28 04:45:57;;;;;;;;;;;;;;;;;;7596714;23;19905;-77
2023/04/28 04:48:57;;;;;;;;;;;;;;;;;;7596684;23;19904;-77
2023/04/28 04:51:58;;;;;;;;;;;;;;;;;;7596752;23;19988;-82
2023/04/28 04:54:58;;;;;;;;;;;;;;;;;;7596990;23;19933;-84
2023/04/28 04:57:58;;;;;;;;;;;;;;;;;;7596950;23;20137;-82
2023/04/28 05:00:58;;;;;;;;;;;;;;;;;;7596883;23;19923;-82
2023/04/28 05:03:58;;;;;;;;;;;;;;;;;;7596381;23;20356;-82
2023/04/28 05:06:58;;;;;;;;;;;;;;;;;;7596799;23;19908;-82
2023/04/28 05:09:58;;;;;;;;;;;;;;;;;;7596654;23;19901;-82
2023/04/28 05:12:58;;;;;;;;;;;;;;;;;;7595576;23;19908;-83
2023/04/28 05:15:58;;;;;;;;;;;;;;;;;;7596271;23;20343;-82
2023/04/28 05:18:59;;;;;;;;;;;;;;;;;;7596414;23;19916;-82
2023/04/28 05:22:00;;;;;;;;;;;;;;;;;;7601341;23;19901;-82
2023/04/28 05:25:00;;;;;;;;;;;;;;;;;;7596704;23;19951;-82
2023/04/28 05:28:06;;;;;;;;;;;;;;;;;;7596812;23;19909;-82
2023/04/28 05:31:06;;;;;;;;;;;;;;;;;;7596972;23;19908;-82
2023/04/28 05:34:06;;;;;;;;;;;;;;;;;;7570703;23;19928;-82
2023/04/28 05:37:07;;;;;;;;;;;;;;;;;;7596020;23;20007;-83
2023/04/28 05:40:07;;;;;;;;;;;;;;;;;;7570311;23;19916;-82
2023/04/28 05:43:07;;;;;;;;;;;;;;;;;;7570303;23;19909;-82
2023/04/28 05:46:08;;;;;;;;;;;;;;;;;;7595984;23;19974;-82
2023/04/28 05:49:08;;;;;;;;;;;;;;;;;;7595942;23;19901;-82
2023/04/28 05:52:08;;;;;;;;;;;;;;;;;;7594413;23;19901;-82
2023/04/28 05:55:08;;;;;;;;;;;;;;;;;;7595099;23;19901;-82
2023/04/28 05:58:09;;;;;;;;;;;;;;;;;;7568275;23;19916;-81
2023/04/28 06:01:09;;;;;;;;;;;;;;;;;;7568600;23;20233;-77
2023/04/28 06:04:09;;;;;;;;;;;;;;;;;;7595763;23;19901;-77
2023/04/28 06:07:10;;;;;;;;;;;;;;;;;;7595887;23;20321;-77
2023/04/28 06:10:10;;;;;;;;;;;;;;;;;;7594981;23;20329;-77
2023/04/28 06:13:10;;;;;;;;;;;;;;;;;;7592016;23;20249;-78
2023/04/28 06:16:10;;;;;;;;;;;;;;;;;;7596501;23;19901;-77
2023/04/28 06:19:10;;;;;;;;;;;;;;;;;;7595621;23;19947;-78
2023/04/28 06:22:10;;;;;;;;;;;;;;;;;;7596229;23;19901;-77
2023/04/28 06:25:10;;;;;;;;;;;;;;;;;;7595516;23;19991;-77
2023/04/28 06:28:12;;;;;;;;;;;;;;;;;;7596427;23;19908;-77
2023/04/28 06:31:12;;;;;;;;;;;;;;;;;;7595843;23;19923;-75
2023/04/28 06:34:12;;;;;;;;;;;;;;;;;;7570022;23;20440;-76
2023/04/28 06:37:12;;;;;;;;;;;;;;;;;;7595895;23;19997;-76
2023/04/28 06:40:12;;;;;;;;;;;;;;;;;;7595188;23;19905;-76
2023/04/28 06:43:12;;;;;;;;;;;;;;;;;;7595681;23;19912;-76
2023/04/28 06:46:12;;;;;;;;;;;;;;;;;;7569828;23;19936;-76
2023/04/28 06:49:13;;;;;;;;;;;;;;;;;;7595968;23;19980;-76
2023/04/28 06:52:13;;;;;;;;;;;;;;;;;;7593238;23;19966;-77
2023/04/28 06:55:13;;;;;;;;;;;;;;;;;;7595828;23;19901;-76
2023/04/28 06:58:14;;;;;;;;;;;;;;;;;;7596695;23;19909;-76
2023/04/28 07:01:14;;;;;;;;;;;;;;;;;;7595070;23;20352;-80
2023/04/28 07:04:14;;;;;;;;;;;;;;;;;;7595596;23;19901;-80
2023/04/28 07:07:14;;;;;;;;;;;;;;;;;;7596641;23;19901;-79
2023/04/28 07:10:15;;;;;;;;;;;;;;;;;;7595695;23;19909;-81
2023/04/28 07:13:15;;;;;;;;;;;;;;;;;;7556623;23;19929;-81
2023/04/28 07:16:15;;;;;;;;;;;;;;;;;;7559791;23;19901;-81
2023/04/28 07:19:15;;;;;;;;;;;;;;;;;;7559766;23;19910;-81
2023/04/28 07:22:16;;;;;;;;;;;;;;;;;;7559829;23;19949;-80
2023/04/28 07:25:16;;;;;;;;;;;;;;;;;;7559399;23;20376;-82
2023/04/28 07:28:16;;;;;;;;;;;;;;;;;;7559766;23;19905;-81
2023/04/28 07:31:16;;;;;;;;;;;;;;;;;;7559046;23;19988;-80
2023/04/28 07:34:16;;;;;;;;;;;;;;;;;;7558978;23;19905;-80
2023/04/28 07:37:16;;;;;;;;;;;;;;;;;;7558936;23;19905;-80
2023/04/28 07:40:16;;;;;;;;;;;;;;;;;;7558092;23;19913;-80
2023/04/28 07:43:17;;;;;;;;;;;;;;;;;;7558995;23;19928;-81
2023/04/28 07:46:17;;;;;;;;;;;;;;;;;;7558908;23;20310;-81
2023/04/28 07:49:17;;;;;;;;;;;;;;;;;;7558800;23;19913;-80
2023/04/28 07:52:17;;;;;;;;;;;;;;;;;;7559018;23;19948;-80
2023/04/28 07:55:17;;;;;;;;;;;;;;;;;;7558534;23;19901;-81
2023/04/28 07:58:17;;;;;;;;;;;;;;;;;;7559090;23;19905;-81
2023/04/28 08:01:17;;;;;;;;;;;;;;;;;;7558524;23;19955;-81
2023/04/28 08:04:19;;;;;;;;;;;;;;;;;;7557949;23;19901;-81
2023/04/28 08:07:19;;;;;;;;;;;;;;;;;;7558503;23;19912;-80
2023/04/28 08:10:19;;;;;;;;;;;;;;;;;;7559068;23;19901;-80
2023/04/28 08:13:19;;;;;;;;;;;;;;;;;;7579000;23;20019;-80
2023/04/28 08:16:21;;;;;;;;;;;;;;;;;;7595425;23;19924;-82
2023/04/28 08:19:21;;;;;;;;;;;;;;;;;;7597592;23;19905;-81
2023/04/28 08:22:21;;;;;;;;;;;;;;;;;;7597104;23;19901;-81
2023/04/28 08:25:22;;;;;;;;;;;;;;;;;;7595596;23;20140;-81
2023/04/28 08:28:23;;;;;;;;;;;;;;;;;;7597180;23;19956;-80
2023/04/28 08:31:23;;;;;;;;;;;;;;;;;;7596715;23;20250;-82
2023/04/28 08:34:23;;;;;;;;;;;;;;;;;;7596305;23;19905;-81
2023/04/28 08:37:24;;;;;;;;;;;;;;;;;;7596433;23;19909;-81
2023/04/28 08:40:25;;;;;;;;;;;;;;;;;;7597244;23;19901;-81
2023/04/28 08:43:27;;;;;;;;;;;;;;;;;;7596606;23;20345;-81
2023/04/28 08:46:27;;;;;;;;;;;;;;;;;;7596485;23;19901;-81
2023/04/28 08:49:27;;;;;;;;;;;;;;;;;;7595940;23;20242;-81
2023/04/28 08:52:28;;;;;;;;;;;;;;;;;;7596150;23;19924;-81
2023/04/28 08:55:28;;;;;;;;;;;;;;;;;;7595000;23;20333;-81
2023/04/28 08:58:28;;;;;;;;;;;;;;;;;;7593801;23;19916;-81
2023/04/28 09:01:29;;;;;;;;;;;;;;;;;;7595287;23;19901;-81
2023/04/28 09:04:29;;;;;;;;;;;;;;;;;;7594791;23;19912;-81
2023/04/28 09:07:29;;;;;;;;;;;;;;;;;;7594989;23;19967;-80
2023/04/28 09:10:29;;;;;;;;;;;;;;;;;;7595241;23;19905;-82
2023/04/28 09:13:30;;;;;;;;;;;;;;;;;;7595039;23;19919;-81
2023/04/28 09:16:31;;;;;;;;;;;;;;;;;;7595517;23;20244;-80
2023/04/28 09:19:31;;;;;;;;;;;;;;;;;;7596096;23;19908;-77
2023/04/28 09:22:32;;;;;;;;;;;;;;;;;;7570146;23;19901;-77
2023/04/28 09:25:32;;;;;;;;;;;;;;;;;;7596243;23;19905;-76
2023/04/28 09:28:32;;;;;;;;;;;;;;;;;;7595541;23;19904;-77
2023/04/28 09:31:39;;;;;;;;;;;;;;;;;;7596217;23;19904;-77
2023/04/28 09:34:39;;;;;;;;;;;;;;;;;;7595827;23;19916;-77
2023/04/28 09:37:39;;;;;;;;;;;;;;;;;;7596242;23;19909;-77
2023/04/28 09:40:39;;;;;;;;;;;;;;;;;;7596308;23;19924;-77
2023/04/28 09:43:39;;;;;;;;;;;;;;;;;;7595975;23;19904;-77
2023/04/28 09:46:40;;;;;;;;;;;;;;;;;;7596614;23;19951;-77
2023/04/28 09:49:41;;;;;;;;;;;;;;;;;;7596469;23;20280;-77
2023/04/28 09:52:41;;;;;;;;;;;;;;;;;;7595841;23;19905;-77
2023/04/28 09:55:42;;;;;;;;;;;;;;;;;;7596224;23;20246;-77
2023/04/28 09:58:43;;;;;;;;;;;;;;;;;;7595405;23;19909;-77
2023/04/28 10:01:43;;;;;;;;;;;;;;;;;;7595950;23;19905;-77
2023/04/28 10:04:43;;;;;;;;;;;;;;;;;;7594878;23;20329;-77
2023/04/28 10:07:43;;;;;;;;;;;;;;;;;;7595600;23;19940;-77
2023/04/28 10:10:43;;;;;;;;;;;;;;;;;;7595597;23;19947;-77
2023/04/28 10:13:43;;;;;;;;;;;;;;;;;;7595953;23;19913;-77
2023/04/28 10:16:45;;;;;;;;;;;;;;;;;;7596086;23;20341;-77
2023/04/28 10:19:45;;;;;;;;;;;;;;;;;;7596457;23;19978;-77
2023/04/28 10:22:45;;;;;;;;;;;;;;;;;;7595663;23;19901;-75
2023/04/28 10:25:45;;;;;;;;;;;;;;;;;;7592205;23;19904;-75
2023/04/28 10:28:46;;;;;;;;;;;;;;;;;;7595351;23;19908;-76
2023/04/28 10:31:46;;;;;;;;;;;;;;;;;;7595346;23;19992;-79
2023/04/28 10:34:47;;;;;;;;;;;;;;;;;;7595423;23;19908;-78
2023/04/28 10:37:47;;;;;;;;;;;;;;;;;;7596007;23;19905;-79
2023/04/28 10:40:47;;;;;;;;;;;;;;;;;;7568852;23;19905;-76
2023/04/28 10:43:49;;;;;;;;;;;;;;;;;;7594757;23;19909;-75
2023/04/28 10:46:49;;;;;;;;;;;;;;;;;;7594857;23;19905;-76
2023/04/28 10:49:49;;;;;;;;;;;;;;;;;;7595576;23;19912;-76
2023/04/28 10:52:49;;;;;;;;;;;;;;;;;;7595236;23;20318;-76
2023/04/28 10:55:50;;;;;;;;;;;;;;;;;;7594425;23;19924;-76
2023/04/28 10:58:50;;;;;;;;;;;;;;;;;;7595036;23;20284;-76
2023/04/28 11:01:50;;;;;;;;;;;;;;;;;;7595137;23;20329;-76
2023/04/28 11:04:50;;;;;;;;;;;;;;;;;;7595092;23;19987;-76
2023/04/28 11:07:50;;;;;;;;;;;;;;;;;;7594337;23;19905;-76
2023/04/28 11:10:50;;;;;;;;;;;;;;;;;;7594858;23;19950;-75
2023/04/28 11:13:50;;;;;;;;;;;;;;;;;;7594990;23;19912;-76
2023/04/28 11:16:51;;;;;;;;;;;;;;;;;;7568964;23;19912;-76
2023/04/28 11:19:51;;;;;;;;;;;;;;;;;;7595431;23;19904;-77
2023/04/28 11:22:51;;;;;;;;;;;;;;;;;;7595336;23;19932;-77
2023/04/28 11:25:51;;;;;;;;;;;;;;;;;;7594879;23;19901;-77
2023/04/28 11:28:51;;;;;;;;;;;;;;;;;;7567270;23;20693;-77
2023/04/28 11:31:51;;;;;;;;;;;;;;;;;;7595302;23;19901;-77
2023/04/28 11:34:51;;;;;;;;;;;;;;;;;;7569449;23;19901;-77
2023/04/28 11:37:53;;;;;;;;;;;;;;;;;;7595142;23;19905;-77
2023/04/28 13:01:28;;;;;;;13.80;4.18;;;;;;;;;;6306094;27;20378;-80
2023/04/28 13:04:28;;;;;;;8.57;4.15;;;;;;;;;;6299533;28;20056;-81
2023/04/28 13:07:29;;;;;;;7.87;3.83;;;;;;;;;;6290123;28;20063;-80
2023/04/28 13:10:29;;;;;;;7.73;3.50;;;;;;;;;;6289911;28;20012;-81
2023/04/28 13:13:30;;;;;;;8.50;3.80;;;;;;;;;;6298458;28;20016;-81
2023/04/28 15:11:04;;;;;;;7.55;3.53;;;;;;;;;;6376074;27;20377;-76
2023/04/28 15:14:05;;;;;;;7.70;3.10;;;;;;;;;;6366622;27;20478;-75
2023/04/28 15:17:06;;;;;;;7.90;3.20;;;;;;;;;;6362110;27;20588;-76
2023/04/28 15:20:07;;;;;;;7.43;3.05;;;;;;;;;;6356314;27;20019;-76
2023/04/28 15:23:08;;;;;;;6.97;3.23;;;;;;;;;;6363886;27;20020;-76
2023/04/28 15:26:09;;;;;;;12.18;3.90;;;;;;;;;;6364649;27;20019;-76
2023/04/28 15:29:11;;;;;;;8.18;3.70;;;;;;;;;;6368037;27;20019;-76
2023/04/28 15:32:12;;;;;;;;;;;;;;;;;;6361523;27;20024;-76
2023/04/28 15:35:13;;;;;;;10.87;5.20;;;;;;;;;;6361822;27;19948;-75
2023/04/28 15:38:13;;;;;;;7.32;3.90;;;;;;;;;;6359318;27;20050;-76
2023/04/28 15:41:14;;;;;;;10.30;5.20;;;;;;;;;;6339130;27;20087;-76
2023/04/28 15:44:14;;;;;;;15.47;5.40;;;;;;;;;;6333843;27;20152;-76
2023/04/28 15:47:14;;;;;;;10.73;3.37;;;;;;;;;;6351785;27;20375;-76
2023/04/28 15:50:15;;;;;;;9.17;3.63;;;;;;;;;;6354568;27;20047;-76
2023/04/28 15:53:16;;;;;;;7.53;2.95;;;;;;;;;;6359348;27;20296;-76
2023/04/28 15:56:17;;;;;;;10.43;3.77;;;;;;;;;;6364263;27;20098;-76
2023/04/28 15:59:17;;;;;;;7.20;3.70;;;;;;;;;;6362235;27;20083;-76
2023/04/28 16:02:19;;;;;;;11.00;3.97;;;;;;;;;;6364802;27;20022;-76
2023/04/28 16:05:20;;;;;;;7.57;3.58;;;;;;;;;;6363048;27;20023;-76
2023/04/28 16:08:23;;;;;;;11.47;4.50;;;;;;;;;;6368236;27;19999;-76
2023/04/28 16:11:24;;;;;;;8.10;3.67;;;;;;;;;;6349361;27;20419;-79
2023/04/28 16:14:25;;;;;;;13.73;8.87;;;;;;;;;;6349636;27;20024;-79
2023/04/28 16:17:25;;;;;;;14.17;6.67;;;;;;;;;;6348090;27;20206;-80
2023/04/28 16:20:25;;;;;;;7.50;4.60;;;;;;;;;;6341899;28;20023;-79
2023/04/28 16:23:25;;;;;;;12.23;4.50;;;;;;;;;;6345982;27;20015;-80
2023/04/28 16:26:26;;;;;;;12.97;5.00;;;;;;;;;;6344283;27;20019;-80
2023/04/28 16:29:26;;;;;;;12.17;4.90;;;;;;;;;;6347849;28;20094;-80
2023/04/28 16:32:27;;;;;;;10.73;5.10;;;;;;;;;;6351515;27;20760;-79
2023/04/28 16:35:27;;;;;;;7.53;4.40;;;;;;;;;;6344310;28;20031;-79
2023/04/28 16:38:28;;;;;;;7.60;4.20;;;;;;;;;;6348622;27;20477;-79
2023/04/28 16:41:28;;;;;;;10.87;4.93;;;;;;;;;;6348239;27;20364;-79
2023/04/28 16:44:29;;;;;;;10.30;4.33;;;;;;;;;;6343555;27;20031;-79
2023/04/28 16:47:30;;;;;;;10.43;4.38;;;;;;;;;;6340997;28;20027;-79
2023/04/28 16:50:31;;;;;;;5.67;3.30;;;;;;;;;;6346232;27;20459;-79
2023/04/28 16:53:31;;;;;;;6.40;4.00;;;;;;;;;;6345682;27;20525;-79
2023/04/28 16:56:33;;;;;;;25.67;13.43;;;;;;;;;;6352525;27;20073;-79
2023/04/28 16:59:33;;;;;;;31.83;16.98;;;;;;;;;;6356959;27;20022;-79
2023/04/28 17:02:34;;;;;;;40.70;22.47;;;;;;;;;;6351193;27;20015;-80
2023/04/28 17:05:35;;;;;;;47.13;26.27;;;;;;;;;;6344492;28;20341;-78
2023/04/28 17:08:35;;;;;;;27.80;14.00;;;;;;;;;;6350646;27;20035;-78
2023/04/28 17:11:36;;;;;;;17.87;8.40;;;;;;;;;;6345893;27;20077;-79
2023/04/28 17:14:37;;;;;;;12.13;5.07;;;;;;;;;;6345888;27;20080;-79
2023/04/28 17:17:37;;;;;;;9.40;4.33;;;;;;;;;;6342502;27;20474;-79
2023/04/28 17:20:38;;;;;;;6.10;3.83;;;;;;;;;;6348672;27;20107;-79
2023/04/28 17:23:40;;;;;;;8.40;4.40;;;;;;;;;;6342915;27;20022;-80
2023/04/28 17:26:40;;;;;;;11.73;4.05;;;;;;;;;;6348597;27;20059;-79
2023/04/28 17:29:41;;;;;;;7.67;3.47;;;;;;;;;;6344756;27;20023;-80
2023/04/28 17:32:41;;;;;;;8.98;3.75;;;;;;;;;;6344932;27;20035;-79
2023/04/28 17:35:42;;;;;;;7.53;3.63;;;;;;;;;;6342867;28;20548;-79
2023/04/28 17:38:42;;;;;;;6.37;3.10;;;;;;;;;;6341225;28;20023;-79
2023/04/28 17:41:43;;;;;;;6.87;3.93;;;;;;;;;;6344242;27;20382;-79
2023/04/28 17:44:43;;;;;;;17.85;4.72;;;;;;;;;;6343011;27;20019;-79
2023/04/28 17:47:44;;;;;;;11.27;5.63;;;;;;;;;;6344787;27;20184;-80
2023/04/28 17:50:44;;;;;;;12.77;6.10;;;;;;;;;;6344852;27;20030;-80
2023/04/28 17:53:47;;;;;;;13.43;6.47;;;;;;;;;;6340901;28;20112;-79
2023/04/28 17:56:48;;;;;;;14.90;6.05;;;;;;;;;;6342273;27;20043;-80
2023/04/28 17:59:48;;;;;;;13.83;6.70;;;;;;;;;;6338629;28;20079;-79
2023/04/28 18:02:51;;;;;;;13.70;6.73;;;;;;;;;;6343548;27;20474;-80
2023/04/28 18:05:51;;;;;;;18.27;7.63;;;;;;;;;;6345275;28;20465;-79
2023/04/28 18:08:51;;;;;;;14.90;8.70;;;;;;;;;;6352759;27;20086;-79
2023/04/28 18:11:53;;;;;;;18.17;9.37;;;;;;;;;;6345611;27;20040;-79
2023/04/28 18:14:53;;;;;;;19.10;9.35;;;;;;;;;;6323371;28;20483;-79
2023/04/28 18:17:53;;;;;;;13.93;7.30;;;;;;;;;;6324809;27;20034;-80
2023/04/28 18:20:56;;;;;;;14.30;7.60;;;;;;;;;;6337518;27;20027;-79
2023/04/28 18:23:57;;;;;;;15.35;6.75;;;;;;;;;;6327231;27;20478;-79
2023/04/28 18:26:57;;;;;;;13.13;6.72;;;;;;;;;;6339470;27;20424;-80
2023/04/28 18:29:57;;;;;;;11.60;5.53;;;;;;;;;;6340220;27;20127;-76
2023/04/28 18:32:58;;;;;;;15.73;6.63;;;;;;;;;;6331362;27;20084;-76
2023/04/28 18:36:04;;;;;;;12.57;7.47;;;;;;;;;;6340011;28;20356;-76
2023/04/28 18:39:04;;;;;;;20.27;11.23;;;;;;;;;;6336622;28;20028;-75
2023/04/28 18:42:04;;;;;;;19.97;10.80;;;;;;;;;;6348465;27;20019;-76
2023/04/28 18:45:05;;;;;;;20.07;12.27;;;;;;;;;;6341687;27;20403;-76
2023/04/28 18:48:06;;;;;;;19.37;10.70;;;;;;;;;;6338410;28;20030;-76
2023/04/28 18:51:07;;;;;;;17.38;10.27;;;;;;;;;;6341319;27;20114;-76
2023/04/28 18:54:07;;;;;;;14.37;7.17;;;;;;;;;;6339565;28;20036;-77
2023/04/28 18:57:08;;;;;;;14.13;7.77;;;;;;;;;;6341671;28;20027;-76
2023/04/28 19:00:08;;;;;;;14.30;7.57;;;;;;;;;;6341493;28;20498;-77
2023/04/28 19:03:08;;;;;;;16.57;9.03;;;;;;;;;;6344944;28;20024;-77
2023/04/28 19:06:09;;;;;;;12.95;8.55;;;;;;;;;;6332704;28;20050;-76
2023/04/28 19:09:10;;;;;;;14.38;6.93;;;;;;;;;;6343099;28;20051;-77
2023/04/28 19:12:10;;;;;;;14.98;7.93;;;;;;;;;;6346088;28;20043;-77
2023/04/28 19:15:11;;;;;;;15.30;7.23;;;;;;;;;;6341112;28;20147;-77
2023/04/28 19:18:12;;;;;;;15.75;8.10;;;;;;;;;;6340727;28;20039;-77
2023/04/28 19:21:12;;;;;;;20.70;8.30;;;;;;;;;;6340030;28;20049;-77
2023/04/28 19:24:12;;;;;;;16.87;8.50;;;;;;;;;;6341975;28;20015;-76
2023/04/28 19:27:13;;;;;;;17.93;8.43;;;;;;;;;;6337196;28;20390;-76
2023/04/28 19:30:13;;;;;;;14.68;9.52;;;;;;;;;;6353056;28;20114;-76
2023/04/28 19:33:13;;;;;;;17.07;9.67;;;;;;;;;;6352863;28;20023;-77
2023/04/28 19:36:13;;;;;;;18.93;9.97;;;;;;;;;;6345565;28;20454;-77
2023/04/28 19:39:14;;;;;;;20.50;10.53;;;;;;;;;;6342237;28;20077;-76
2023/04/28 19:42:14;;;;;;;16.03;8.20;;;;;;;;;;6339771;28;20031;-77
2023/04/28 19:45:15;;;;;;;11.47;7.57;;;;;;;;;;6332499;27;20508;-77
2023/04/28 19:48:17;;;;;;;12.02;6.50;;;;;;;;;;6340315;28;20027;-77
2023/04/28 19:51:18;;;;;;;;;;;;;;;;;;6348732;27;20034;-80
2023/04/28 19:54:18;;;;;;;11.93;6.63;;;;;;;;;;6352642;27;19907;-80
2023/04/28 19:57:18;;;;;;;7.60;4.70;;;;;;;;;;6345858;28;20034;-80
2023/04/28 20:00:20;;;;;;;12.00;5.93;;;;;;;;;;6347180;27;20030;-77
2023/04/28 20:03:20;;;;;;;10.45;5.60;;;;;;;;;;6347594;27;20020;-77
2023/04/28 20:06:21;;;;;;;12.70;5.60;;;;;;;;;;6351126;27;20085;-77
2023/04/28 20:09:21;;;;;;;10.97;6.30;;;;;;;;;;6338897;27;20035;-77
2023/04/28 20:12:22;;;;;;;17.27;8.30;;;;;;;;;;6350692;27;20487;-78
2023/04/28 20:15:24;;;;;;;15.90;7.72;;;;;;;;;;6348276;27;20068;-77
2023/04/28 20:18:24;;;;;;;16.20;8.13;;;;;;;;;;6344133;27;20023;-77
2023/04/28 20:21:25;;;;;;;15.07;8.13;;;;;;;;;;6346785;27;20035;-76
2023/04/28 20:24:25;;;;;;;16.97;9.33;;;;;;;;;;6337926;27;20016;-76
2023/04/28 20:27:26;;;;;;;12.47;7.23;;;;;;;;;;6353886;27;20419;-76
2023/04/28 20:30:27;;;;;;;13.43;6.45;;;;;;;;;;6335369;28;20352;-77
2023/04/28 20:33:28;;;;;;;12.80;7.67;;;;;;;;;;6347337;27;20039;-76
2023/04/28 20:36:29;;;;;;;17.63;7.77;;;;;;;;;;6344848;27;20440;-76
2023/04/28 20:39:29;;;;;;;16.00;6.60;;;;;;;;;;6346434;27;20024;-76
2023/04/28 20:42:29;;;;;;;14.83;8.23;;;;;;;;;;6345815;27;20024;-77
2023/04/28 20:45:30;;;;;;;13.33;6.97;;;;;;;;;;6347103;27;20012;-77
2023/04/28 20:48:31;;;;;;;17.35;8.10;;;;;;;;;;6348159;27;20774;-77
2023/04/28 20:51:36;;;;;;;25.30;9.07;;;;;;;;;;6343705;28;20378;-77
2023/04/28 20:54:36;;;;;;;16.35;9.60;;;;;;;;;;6341059;28;20547;-77
2023/04/28 20:57:36;;;;;;;20.40;10.95;;;;;;;;;;6346743;28;20016;-77
2023/04/28 21:00:39;;;;;;;21.27;9.87;;;;;;;;;;6348546;27;20023;-77
2023/04/28 21:03:40;;;;;;;25.13;11.95;;;;;;;;;;6350095;27;20514;-78
2023/04/28 21:06:41;;;;;;;31.40;15.03;;;;;;;;;;6350508;27;20103;-77
2023/04/28 21:09:41;;;;;;;25.77;11.17;;;;;;;;;;6347514;27;20734;-79
2023/04/28 21:12:41;;;;;;;25.23;13.30;;;;;;;;;;6335814;27;20322;-79
2023/04/28 21:15:41;;;;;;;25.67;11.02;;;;;;;;;;6351115;27;20036;-79
2023/04/28 21:18:44;;;;;;;24.27;13.63;;;;;;;;;;6339041;28;20027;-79
2023/04/28 21:21:44;;;;;;;20.40;10.55;;;;;;;;;;6338780;27;20064;-79
2023/04/28 21:24:45;;;;;;;21.57;10.13;;;;;;;;;;6338373;27;20459;-79
2023/04/28 21:27:45;;;;;;;15.77;8.37;;;;;;;;;;6341206;28;20265;-79
2023/04/28 21:30:45;;;;;;;18.67;9.38;;;;;;;;;;6345589;27;20257;-79
2023/04/28 21:33:45;;;;;;;25.35;11.38;;;;;;;;;;6350196;27;20027;-79
2023/04/28 21:36:45;;;;;;;19.05;10.23;;;;;;;;;;6344604;28;20019;-79
2023/04/28 21:39:46;;;;;;;23.38;11.10;;;;;;;;;;6345810;27;20543;-79
2023/04/28 21:42:46;;;;;;;27.65;13.70;;;;;;;;;;6344500;27;20022;-79
2023/04/28 21:45:46;;;;;;;30.10;11.30;;;;;;;;;;6342808;28;20620;-79
2023/04/28 21:48:48;;;;;;;28.20;12.80;;;;;;;;;;6344872;27;20016;-79
2023/04/28 21:51:48;;;;;;;;;;;;;;;;;;6346906;27;20137;-78
2023/04/28 21:54:48;;;;;;;28.83;11.68;;;;;;;;;;6344005;28;19911;-79
2023/04/28 21:57:49;;;;;;;26.17;12.40;;;;;;;;;;6338664;28;20073;-79
2023/04/28 22:00:49;;;;;;;25.73;13.48;;;;;;;;;;6343658;28;20051;-79
2023/04/28 22:03:50;;;;;;;27.50;14.18;;;;;;;;;;6341490;27;20027;-79
2023/04/28 22:06:50;;;;;;;24.23;12.80;;;;;;;;;;6341738;27;20024;-79
2023/04/28 22:09:50;;;;;;;23.50;11.47;;;;;;;;;;6340620;27;20336;-79
2023/04/28 22:12:51;;;;;;;25.33;12.23;;;;;;;;;;6339335;27;20269;-79
2023/04/28 22:15:51;;;;;;;18.23;10.68;;;;;;;;;;6337475;28;20015;-78
2023/04/28 22:18:51;;;;;;;21.25;12.77;;;;;;;;;;6354689;27;20066;-80
2023/04/28 22:21:51;;;;;;;21.92;12.25;;;;;;;;;;6353636;27;20023;-80
2023/04/28 22:24:51;;;;;;;28.17;12.63;;;;;;;;;;6349693;27;20264;-80
2023/04/28 22:27:52;;;;;;;23.00;12.30;;;;;;;;;;6343028;28;20282;-80
2023/04/28 22:30:53;;;;;;;19.40;11.00;;;;;;;;;;6339779;27;20348;-81
2023/04/28 22:33:53;;;;;;;23.40;11.17;;;;;;;;;;6339649;28;20488;-80